sensor_id;sensor_type;location;lat;lon;timestamp;temperature;humidity
28336;DHT22;15592;53.656;7.276;2023-01-19T00:02:14;2.80;99.90
28336;DHT22;15592;53.656;7.276;2023-01-19T00:04:39;2.80;99.90
28336;DHT22;15592;53.656;7.276;2023-01-19T00:07:05;2.80;99.90
28336;DHT22;15592;53.656;7.276;2023-01-19T00:09:31;2.70;99.90
28336;DHT22;15592;53.656;7.276;2023-01-19T00:12:06;2.70;99.90
28336;DHT22;15592;53.656;7.276;2023-01-19T00:14:31;2.70;99.90
28336;DHT22;15592;53.656;7.276;2023-01-19T00:16:57;2.70;99.90
28336;DHT22;15592;53.656;7.276;2023-01-19T00:19:23;2.60;99.90
28336;DHT22;15592;53.656;7.276;2023-01-19T00:21:48;2.70;99.90
28336;DHT22;15592;53.656;7.276;2023-01-19T00:24:14;2.60;99.90
28336;DHT22;15592;53.656;7.276;2023-01-19T00:26:40;2.60;99.90
28336;DHT22;15592;53.656;7.276;2023-01-19T00:29:09;2.70;99.90
28336;DHT22;15592;53.656;7.276;2023-01-19T00:31:34;2.70;99.90
28336;DHT22;15592;53.656;7.276;2023-01-19T00:34:03;2.70;99.90
28336;DHT22;15592;53.656;7.276;2023-01-19T00:36:29;2.70;99.90
28336;DHT22;15592;53.656;7.276;2023-01-19T00:38:55;2.60;99.90
28336;DHT22;15592;53.656;7.276;2023-01-19T00:41:21;2.70;99.90
28336;DHT22;15592;53.656;7.276;2023-01-19T00:44:06;2.70;99.90
28336;DHT22;15592;53.656;7.276;2023-01-19T00:46:32;2.70;99.90
28336;DHT22;15592;53.656;7.276;2023-01-19T00:48:58;2.70;99.90
28336;DHT22;15592;53.656;7.276;2023-01-19T00:51:23;2.80;99.90
28336;DHT22;15592;53.656;7.276;2023-01-19T00:53:49;2.80;99.90
28336;DHT22;15592;53.656;7.276;2023-01-19T00:56:15;2.80;99.90
28336;DHT22;15592;53.656;7.276;2023-01-19T00:58:41;2.80;99.90
28336;DHT22;15592;53.656;7.276;2023-01-19T01:01:07;2.80;99.90
28336;DHT22;15592;53.656;7.276;2023-01-19T01:03:33;2.80;99.90
28336;DHT22;15592;53.656;7.276;2023-01-19T01:05:58;2.80;99.90
28336;DHT22;15592;53.656;7.276;2023-01-19T01:08:24;2.80;99.90
28336;DHT22;15592;53.656;7.276;2023-01-19T01:10:50;2.80;99.90
28336;DHT22;15592;53.656;7.276;2023-01-19T01:13:16;2.80;99.90
28336;DHT22;15592;53.656;7.276;2023-01-19T01:15:42;2.80;99.90
28336;DHT22;15592;53.656;7.276;2023-01-19T01:18:08;2.80;99.90
28336;DHT22;15592;53.656;7.276;2023-01-19T01:20:34;2.70;99.90
28336;DHT22;15592;53.656;7.276;2023-01-19T01:23:02;2.70;99.90
28336;DHT22;15592;53.656;7.276;2023-01-19T01:25:28;2.60;99.90
28336;DHT22;15592;53.656;7.276;2023-01-19T01:27:55;2.60;99.90
28336;DHT22;15592;53.656;7.276;2023-01-19T01:30:23;2.50;99.90
28336;DHT22;15592;53.656;7.276;2023-01-19T01:32:49;2.50;99.90
28336;DHT22;15592;53.656;7.276;2023-01-19T01:35:15;2.50;99.90
28336;DHT22;15592;53.656;7.276;2023-01-19T01:37:41;2.50;99.90
28336;DHT22;15592;53.656;7.276;2023-01-19T01:40:10;2.50;99.90
28336;DHT22;15592;53.656;7.276;2023-01-19T01:42:37;2.50;99.90
28336;DHT22;15592;53.656;7.276;2023-01-19T01:45:33;2.40;99.90
28336;DHT22;15592;53.656;7.276;2023-01-19T01:48:11;2.40;99.90
28336;DHT22;15592;53.656;7.276;2023-01-19T01:50:49;2.40;99.90
28336;DHT22;15592;53.656;7.276;2023-01-19T01:53:40;2.40;99.90
28336;DHT22;15592;53.656;7.276;2023-01-19T01:56:09;2.40;99.90
28336;DHT22;15592;53.656;7.276;2023-01-19T01:58:36;2.40;99.90
28336;DHT22;15592;53.656;7.276;2023-01-19T02:01:03;2.40;99.90
28336;DHT22;15592;53.656;7.276;2023-01-19T02:03:48;2.40;99.90
28336;DHT22;15592;53.656;7.276;2023-01-19T02:06:14;2.50;99.90
28336;DHT22;15592;53.656;7.276;2023-01-19T02:08:47;2.40;99.90
28336;DHT22;15592;53.656;7.276;2023-01-19T02:11:34;2.40;99.90
28336;DHT22;15592;53.656;7.276;2023-01-19T02:14:19;2.50;99.90
28336;DHT22;15592;53.656;7.276;2023-01-19T02:16:45;2.50;99.90
28336;DHT22;15592;53.656;7.276;2023-01-19T02:19:14;2.60;99.90
28336;DHT22;15592;53.656;7.276;2023-01-19T02:21:48;2.60;99.90
28336;DHT22;15592;53.656;7.276;2023-01-19T02:24:17;2.60;99.90
28336;DHT22;15592;53.656;7.276;2023-01-19T02:26:47;2.60;99.90
28336;DHT22;15592;53.656;7.276;2023-01-19T02:29:16;2.50;99.90
28336;DHT22;15592;53.656;7.276;2023-01-19T02:31:42;2.50;99.90
28336;DHT22;15592;53.656;7.276;2023-01-19T02:34:11;2.50;99.90
28336;DHT22;15592;53.656;7.276;2023-01-19T02:36:58;2.50;99.90
28336;DHT22;15592;53.656;7.276;2023-01-19T02:39:46;2.50;99.90
28336;DHT22;15592;53.656;7.276;2023-01-19T02:42:18;2.40;99.90
28336;DHT22;15592;53.656;7.276;2023-01-19T02:44:47;2.40;99.90
28336;DHT22;15592;53.656;7.276;2023-01-19T02:47:14;2.50;99.90
28336;DHT22;15592;53.656;7.276;2023-01-19T02:49:41;2.50;99.90
28336;DHT22;15592;53.656;7.276;2023-01-19T02:52:17;2.50;99.90
28336;DHT22;15592;53.656;7.276;2023-01-19T03:05:32;2.60;99.90
28336;DHT22;15592;53.656;7.276;2023-01-19T03:08:32;2.60;99.90
28336;DHT22;15592;53.656;7.276;2023-01-19T03:11:05;2.70;99.90
28336;DHT22;15592;53.656;7.276;2023-01-19T03:16:28;2.70;99.90
28336;DHT22;15592;53.656;7.276;2023-01-19T03:18:58;2.70;99.90
28336;DHT22;15592;53.656;7.276;2023-01-19T03:21:27;2.70;99.90
28336;DHT22;15592;53.656;7.276;2023-01-19T03:23:57;2.80;99.90
28336;DHT22;15592;53.656;7.276;2023-01-19T03:26:28;2.80;99.90
28336;DHT22;15592;53.656;7.276;2023-01-19T03:28:58;2.90;99.90
28336;DHT22;15592;53.656;7.276;2023-01-19T03:31:26;2.90;99.90
28336;DHT22;15592;53.656;7.276;2023-01-19T03:33:57;2.90;99.90
28336;DHT22;15592;53.656;7.276;2023-01-19T03:36:40;2.90;99.90
28336;DHT22;15592;53.656;7.276;2023-01-19T03:39:08;2.90;99.90
28336;DHT22;15592;53.656;7.276;2023-01-19T03:41:36;2.90;99.90
28336;DHT22;15592;53.656;7.276;2023-01-19T03:44:04;2.80;99.90
28336;DHT22;15592;53.656;7.276;2023-01-19T03:46:31;2.80;99.90
28336;DHT22;15592;53.656;7.276;2023-01-19T03:48:57;2.90;99.90
28336;DHT22;15592;53.656;7.276;2023-01-19T03:51:23;2.90;99.90
28336;DHT22;15592;53.656;7.276;2023-01-19T03:53:49;2.90;99.90
28336;DHT22;15592;53.656;7.276;2023-01-19T03:56:23;2.90;99.90
28336;DHT22;15592;53.656;7.276;2023-01-19T03:58:49;2.90;99.90
28336;DHT22;15592;53.656;7.276;2023-01-19T04:01:16;2.90;99.90
28336;DHT22;15592;53.656;7.276;2023-01-19T04:03:42;3.00;99.90
28336;DHT22;15592;53.656;7.276;2023-01-19T04:06:08;3.00;99.90
28336;DHT22;15592;53.656;7.276;2023-01-19T04:08:35;3.00;99.90
28336;DHT22;15592;53.656;7.276;2023-01-19T04:11:00;3.00;99.90
28336;DHT22;15592;53.656;7.276;2023-01-19T04:13:26;3.00;99.90
28336;DHT22;15592;53.656;7.276;2023-01-19T04:15:57;3.00;99.90
28336;DHT22;15592;53.656;7.276;2023-01-19T04:18:23;3.00;99.90
28336;DHT22;15592;53.656;7.276;2023-01-19T04:20:49;3.00;99.90
28336;DHT22;15592;53.656;7.276;2023-01-19T04:23:14;3.00;99.90
28336;DHT22;15592;53.656;7.276;2023-01-19T04:25:40;3.00;99.90
28336;DHT22;15592;53.656;7.276;2023-01-19T04:28:06;3.00;99.90
28336;DHT22;15592;53.656;7.276;2023-01-19T04:30:31;2.90;99.90
28336;DHT22;15592;53.656;7.276;2023-01-19T04:32:58;2.90;99.90
28336;DHT22;15592;53.656;7.276;2023-01-19T04:35:24;2.90;99.90
28336;DHT22;15592;53.656;7.276;2023-01-19T04:37:49;2.80;99.90
28336;DHT22;15592;53.656;7.276;2023-01-19T04:40:15;2.80;99.90
28336;DHT22;15592;53.656;7.276;2023-01-19T04:42:44;2.80;99.90
28336;DHT22;15592;53.656;7.276;2023-01-19T04:45:12;2.70;99.90
28336;DHT22;15592;53.656;7.276;2023-01-19T04:47:38;2.70;99.90
28336;DHT22;15592;53.656;7.276;2023-01-19T04:50:04;2.70;99.90
28336;DHT22;15592;53.656;7.276;2023-01-19T04:52:33;2.70;99.90
28336;DHT22;15592;53.656;7.276;2023-01-19T04:55:03;2.70;99.90
28336;DHT22;15592;53.656;7.276;2023-01-19T04:57:29;2.70;99.90
28336;DHT22;15592;53.656;7.276;2023-01-19T04:59:58;2.60;99.90
28336;DHT22;15592;53.656;7.276;2023-01-19T05:02:24;2.60;99.90
28336;DHT22;15592;53.656;7.276;2023-01-19T05:04:50;2.50;99.90
28336;DHT22;15592;53.656;7.276;2023-01-19T05:07:16;2.40;99.90
28336;DHT22;15592;53.656;7.276;2023-01-19T05:09:42;2.30;99.90
28336;DHT22;15592;53.656;7.276;2023-01-19T05:12:08;2.30;99.90
28336;DHT22;15592;53.656;7.276;2023-01-19T05:14:33;2.30;99.90
28336;DHT22;15592;53.656;7.276;2023-01-19T05:16:59;2.30;99.90
28336;DHT22;15592;53.656;7.276;2023-01-19T05:19:26;2.40;99.90
28336;DHT22;15592;53.656;7.276;2023-01-19T05:21:52;2.40;99.90
28336;DHT22;15592;53.656;7.276;2023-01-19T05:24:18;2.40;99.90
28336;DHT22;15592;53.656;7.276;2023-01-19T05:26:44;2.40;99.90
28336;DHT22;15592;53.656;7.276;2023-01-19T05:29:10;2.40;99.90
28336;DHT22;15592;53.656;7.276;2023-01-19T05:31:35;2.30;99.90
28336;DHT22;15592;53.656;7.276;2023-01-19T05:34:02;2.40;99.90
28336;DHT22;15592;53.656;7.276;2023-01-19T05:36:28;2.40;99.90
28336;DHT22;15592;53.656;7.276;2023-01-19T05:38:53;2.40;99.90
28336;DHT22;15592;53.656;7.276;2023-01-19T05:41:19;2.50;99.90
28336;DHT22;15592;53.656;7.276;2023-01-19T05:43:45;2.50;99.90
28336;DHT22;15592;53.656;7.276;2023-01-19T05:46:10;2.60;99.90
28336;DHT22;15592;53.656;7.276;2023-01-19T05:48:36;2.60;99.90
28336;DHT22;15592;53.656;7.276;2023-01-19T05:51:02;2.60;99.90
28336;DHT22;15592;53.656;7.276;2023-01-19T05:53:29;2.60;99.90
28336;DHT22;15592;53.656;7.276;2023-01-19T05:56:02;2.60;99.90
28336;DHT22;15592;53.656;7.276;2023-01-19T05:58:29;2.60;99.90
28336;DHT22;15592;53.656;7.276;2023-01-19T06:00:55;2.60;99.90
28336;DHT22;15592;53.656;7.276;2023-01-19T06:03:21;2.70;99.90
28336;DHT22;15592;53.656;7.276;2023-01-19T06:05:46;2.70;99.90
28336;DHT22;15592;53.656;7.276;2023-01-19T06:08:12;2.60;99.90
28336;DHT22;15592;53.656;7.276;2023-01-19T06:10:38;2.60;99.90
28336;DHT22;15592;53.656;7.276;2023-01-19T06:13:04;2.50;99.90
28336;DHT22;15592;53.656;7.276;2023-01-19T06:15:30;2.50;99.90
28336;DHT22;15592;53.656;7.276;2023-01-19T06:17:55;2.50;99.90
28336;DHT22;15592;53.656;7.276;2023-01-19T06:20:21;2.50;99.90
28336;DHT22;15592;53.656;7.276;2023-01-19T06:22:47;2.40;99.90
28336;DHT22;15592;53.656;7.276;2023-01-19T06:25:12;2.40;99.90
28336;DHT22;15592;53.656;7.276;2023-01-19T06:27:42;2.40;99.90
28336;DHT22;15592;53.656;7.276;2023-01-19T06:30:08;2.30;99.90
28336;DHT22;15592;53.656;7.276;2023-01-19T06:32:34;2.30;99.90
28336;DHT22;15592;53.656;7.276;2023-01-19T06:35:00;2.30;99.90
28336;DHT22;15592;53.656;7.276;2023-01-19T06:37:25;2.20;99.90
28336;DHT22;15592;53.656;7.276;2023-01-19T06:39:52;2.10;99.90
28336;DHT22;15592;53.656;7.276;2023-01-19T06:42:18;2.10;99.90
28336;DHT22;15592;53.656;7.276;2023-01-19T06:44:44;2.00;99.90
28336;DHT22;15592;53.656;7.276;2023-01-19T06:47:12;2.10;99.90
28336;DHT22;15592;53.656;7.276;2023-01-19T06:49:38;2.10;99.90
28336;DHT22;15592;53.656;7.276;2023-01-19T06:52:04;2.10;99.90
28336;DHT22;15592;53.656;7.276;2023-01-19T06:54:29;2.10;99.90
28336;DHT22;15592;53.656;7.276;2023-01-19T06:56:55;2.10;99.90
28336;DHT22;15592;53.656;7.276;2023-01-19T06:59:20;2.10;99.90
28336;DHT22;15592;53.656;7.276;2023-01-19T07:01:46;2.10;99.90
28336;DHT22;15592;53.656;7.276;2023-01-19T07:04:12;2.20;99.90
28336;DHT22;15592;53.656;7.276;2023-01-19T07:06:44;2.30;99.90
28336;DHT22;15592;53.656;7.276;2023-01-19T07:09:13;2.40;99.90
28336;DHT22;15592;53.656;7.276;2023-01-19T07:11:39;2.50;99.90
28336;DHT22;15592;53.656;7.276;2023-01-19T07:14:04;2.60;99.90
28336;DHT22;15592;53.656;7.276;2023-01-19T07:16:30;2.70;99.90
28336;DHT22;15592;53.656;7.276;2023-01-19T07:18:56;2.80;99.90
28336;DHT22;15592;53.656;7.276;2023-01-19T07:21:23;2.80;99.90
28336;DHT22;15592;53.656;7.276;2023-01-19T07:23:50;2.80;99.90
28336;DHT22;15592;53.656;7.276;2023-01-19T07:26:16;2.80;99.90
28336;DHT22;15592;53.656;7.276;2023-01-19T07:28:44;2.70;99.90
28336;DHT22;15592;53.656;7.276;2023-01-19T07:31:09;2.70;99.90
28336;DHT22;15592;53.656;7.276;2023-01-19T07:33:35;2.70;99.90
28336;DHT22;15592;53.656;7.276;2023-01-19T07:36:01;2.70;99.90
28336;DHT22;15592;53.656;7.276;2023-01-19T07:38:26;2.70;99.90
28336;DHT22;15592;53.656;7.276;2023-01-19T07:41:05;2.70;99.90
28336;DHT22;15592;53.656;7.276;2023-01-19T07:43:32;2.70;99.90
28336;DHT22;15592;53.656;7.276;2023-01-19T07:45:59;2.70;99.90
28336;DHT22;15592;53.656;7.276;2023-01-19T07:48:26;2.70;99.90
28336;DHT22;15592;53.656;7.276;2023-01-19T07:50:51;2.80;99.90
28336;DHT22;15592;53.656;7.276;2023-01-19T07:53:18;2.80;99.90
28336;DHT22;15592;53.656;7.276;2023-01-19T07:55:44;2.90;99.90
28336;DHT22;15592;53.656;7.276;2023-01-19T07:58:10;2.90;99.90
28336;DHT22;15592;53.656;7.276;2023-01-19T08:00:36;3.00;99.90
28336;DHT22;15592;53.656;7.276;2023-01-19T08:03:03;3.00;99.90
28336;DHT22;15592;53.656;7.276;2023-01-19T08:05:29;3.00;99.90
28336;DHT22;15592;53.656;7.276;2023-01-19T08:07:56;3.10;99.90
28336;DHT22;15592;53.656;7.276;2023-01-19T08:10:23;3.20;99.90
28336;DHT22;15592;53.656;7.276;2023-01-19T08:12:52;3.20;99.90
28336;DHT22;15592;53.656;7.276;2023-01-19T08:15:18;3.20;99.90
28336;DHT22;15592;53.656;7.276;2023-01-19T08:17:44;3.30;99.90
28336;DHT22;15592;53.656;7.276;2023-01-19T08:20:10;3.30;99.90
28336;DHT22;15592;53.656;7.276;2023-01-19T08:22:36;3.30;99.90
28336;DHT22;15592;53.656;7.276;2023-01-19T08:25:02;3.40;99.90
28336;DHT22;15592;53.656;7.276;2023-01-19T08:27:28;3.50;99.90
28336;DHT22;15592;53.656;7.276;2023-01-19T08:29:55;3.50;99.90
28336;DHT22;15592;53.656;7.276;2023-01-19T08:32:20;3.60;99.90
28336;DHT22;15592;53.656;7.276;2023-01-19T08:34:46;3.60;99.90
28336;DHT22;15592;53.656;7.276;2023-01-19T08:37:11;3.60;99.90
28336;DHT22;15592;53.656;7.276;2023-01-19T08:39:37;3.70;99.90
28336;DHT22;15592;53.656;7.276;2023-01-19T08:42:03;3.70;99.90
28336;DHT22;15592;53.656;7.276;2023-01-19T08:44:29;3.70;99.90
28336;DHT22;15592;53.656;7.276;2023-01-19T08:46:54;3.80;99.90
28336;DHT22;15592;53.656;7.276;2023-01-19T08:49:20;3.80;99.90
28336;DHT22;15592;53.656;7.276;2023-01-19T08:51:46;3.80;99.90
28336;DHT22;15592;53.656;7.276;2023-01-19T08:54:12;3.80;99.90
28336;DHT22;15592;53.656;7.276;2023-01-19T08:56:38;3.80;99.90
28336;DHT22;15592;53.656;7.276;2023-01-19T08:59:03;3.90;99.90
28336;DHT22;15592;53.656;7.276;2023-01-19T09:01:29;4.00;99.90
28336;DHT22;15592;53.656;7.276;2023-01-19T09:03:54;4.00;99.90
28336;DHT22;15592;53.656;7.276;2023-01-19T09:06:20;4.00;99.90
28336;DHT22;15592;53.656;7.276;2023-01-19T09:08:46;4.00;99.90
28336;DHT22;15592;53.656;7.276;2023-01-19T09:11:13;4.00;99.90
28336;DHT22;15592;53.656;7.276;2023-01-19T09:13:40;4.00;99.90
28336;DHT22;15592;53.656;7.276;2023-01-19T09:16:06;4.00;99.90
28336;DHT22;15592;53.656;7.276;2023-01-19T09:18:33;4.00;99.90
28336;DHT22;15592;53.656;7.276;2023-01-19T09:20:59;4.00;99.90
28336;DHT22;15592;53.656;7.276;2023-01-19T09:23:25;4.00;99.90
28336;DHT22;15592;53.656;7.276;2023-01-19T09:25:56;4.00;99.90
28336;DHT22;15592;53.656;7.276;2023-01-19T09:28:24;4.00;99.90
28336;DHT22;15592;53.656;7.276;2023-01-19T09:30:50;4.00;99.90
28336;DHT22;15592;53.656;7.276;2023-01-19T09:33:16;4.00;99.90
28336;DHT22;15592;53.656;7.276;2023-01-19T09:35:44;3.90;99.90
28336;DHT22;15592;53.656;7.276;2023-01-19T09:38:09;3.90;99.90
28336;DHT22;15592;53.656;7.276;2023-01-19T09:40:43;3.90;99.90
28336;DHT22;15592;53.656;7.276;2023-01-19T09:46:01;3.90;99.90
28336;DHT22;15592;53.656;7.276;2023-01-19T09:48:57;3.90;99.90
28336;DHT22;15592;53.656;7.276;2023-01-19T09:51:26;3.90;99.90
28336;DHT22;15592;53.656;7.276;2023-01-19T09:54:12;3.90;99.90
28336;DHT22;15592;53.656;7.276;2023-01-19T09:56:41;4.00;99.90
28336;DHT22;15592;53.656;7.276;2023-01-19T09:59:33;4.10;99.90
28336;DHT22;15592;53.656;7.276;2023-01-19T10:07:29;4.20;99.90
28336;DHT22;15592;53.656;7.276;2023-01-19T10:15:41;4.40;99.90
28336;DHT22;15592;53.656;7.276;2023-01-19T10:18:23;4.50;99.90
28336;DHT22;15592;53.656;7.276;2023-01-19T10:21:12;4.60;99.90
28336;DHT22;15592;53.656;7.276;2023-01-19T10:23:51;4.80;99.90
28336;DHT22;15592;53.656;7.276;2023-01-19T10:29:33;5.30;99.90
28336;DHT22;15592;53.656;7.276;2023-01-19T10:32:07;5.60;99.90
28336;DHT22;15592;53.656;7.276;2023-01-19T10:34:33;5.80;99.90
28336;DHT22;15592;53.656;7.276;2023-01-19T10:37:11;5.80;99.90
28336;DHT22;15592;53.656;7.276;2023-01-19T10:39:39;5.70;99.90
28336;DHT22;15592;53.656;7.276;2023-01-19T10:42:11;5.70;99.90
28336;DHT22;15592;53.656;7.276;2023-01-19T10:44:37;5.70;99.90
28336;DHT22;15592;53.656;7.276;2023-01-19T10:47:04;5.60;99.90
28336;DHT22;15592;53.656;7.276;2023-01-19T10:49:38;5.60;99.90
28336;DHT22;15592;53.656;7.276;2023-01-19T10:52:34;5.50;99.90
28336;DHT22;15592;53.656;7.276;2023-01-19T10:55:05;5.40;99.90
28336;DHT22;15592;53.656;7.276;2023-01-19T10:57:34;5.20;99.90
28336;DHT22;15592;53.656;7.276;2023-01-19T11:00:05;5.10;99.90
28336;DHT22;15592;53.656;7.276;2023-01-19T11:02:32;5.00;99.90
28336;DHT22;15592;53.656;7.276;2023-01-19T11:05:00;4.90;99.90
28336;DHT22;15592;53.656;7.276;2023-01-19T11:07:33;4.90;99.90
28336;DHT22;15592;53.656;7.276;2023-01-19T11:12:41;5.10;99.90
28336;DHT22;15592;53.656;7.276;2023-01-19T11:17:46;5.40;99.90
28336;DHT22;15592;53.656;7.276;2023-01-19T11:20:20;5.40;99.90
28336;DHT22;15592;53.656;7.276;2023-01-19T11:22:46;5.40;99.90
28336;DHT22;15592;53.656;7.276;2023-01-19T11:25:22;5.50;99.90
28336;DHT22;15592;53.656;7.276;2023-01-19T11:27:51;5.50;99.90
28336;DHT22;15592;53.656;7.276;2023-01-19T11:30:23;5.40;99.90
28336;DHT22;15592;53.656;7.276;2023-01-19T11:32:49;5.30;99.90
28336;DHT22;15592;53.656;7.276;2023-01-19T11:35:34;5.10;99.90
28336;DHT22;15592;53.656;7.276;2023-01-19T11:38:16;5.10;99.90
28336;DHT22;15592;53.656;7.276;2023-01-19T11:40:53;5.10;99.90
28336;DHT22;15592;53.656;7.276;2023-01-19T11:43:21;5.00;99.90
28336;DHT22;15592;53.656;7.276;2023-01-19T11:45:48;5.00;99.90
28336;DHT22;15592;53.656;7.276;2023-01-19T11:48:31;5.10;99.90
28336;DHT22;15592;53.656;7.276;2023-01-19T11:50:59;5.10;99.90
28336;DHT22;15592;53.656;7.276;2023-01-19T11:53:29;5.10;99.90
28336;DHT22;15592;53.656;7.276;2023-01-19T11:56:08;5.10;99.90
28336;DHT22;15592;53.656;7.276;2023-01-19T11:58:43;5.10;99.90
28336;DHT22;15592;53.656;7.276;2023-01-19T12:01:24;5.10;99.90
28336;DHT22;15592;53.656;7.276;2023-01-19T12:04:11;5.20;99.90
28336;DHT22;15592;53.656;7.276;2023-01-19T12:06:45;5.20;99.90
28336;DHT22;15592;53.656;7.276;2023-01-19T12:09:18;5.20;99.90
28336;DHT22;15592;53.656;7.276;2023-01-19T12:12:12;5.20;99.90
28336;DHT22;15592;53.656;7.276;2023-01-19T12:15:01;5.20;99.90
28336;DHT22;15592;53.656;7.276;2023-01-19T12:17:35;5.30;99.90
28336;DHT22;15592;53.656;7.276;2023-01-19T12:23:48;5.30;99.90
28336;DHT22;15592;53.656;7.276;2023-01-19T12:28:44;5.20;99.90
28336;DHT22;15592;53.656;7.276;2023-01-19T12:31:15;5.20;99.90
28336;DHT22;15592;53.656;7.276;2023-01-19T12:33:42;5.20;99.90
28336;DHT22;15592;53.656;7.276;2023-01-19T12:38:54;5.20;99.90
28336;DHT22;15592;53.656;7.276;2023-01-19T12:49:54;5.00;99.90
28336;DHT22;15592;53.656;7.276;2023-01-19T12:52:57;5.00;99.90
28336;DHT22;15592;53.656;7.276;2023-01-19T12:55:34;5.00;99.90
28336;DHT22;15592;53.656;7.276;2023-01-19T12:58:04;5.00;99.90
28336;DHT22;15592;53.656;7.276;2023-01-19T13:00:41;4.90;99.90
28336;DHT22;15592;53.656;7.276;2023-01-19T13:10:53;5.00;99.90
28336;DHT22;15592;53.656;7.276;2023-01-19T13:13:30;5.00;99.90
28336;DHT22;15592;53.656;7.276;2023-01-19T13:18:47;5.10;99.90
28336;DHT22;15592;53.656;7.276;2023-01-19T13:21:32;5.10;99.90
28336;DHT22;15592;53.656;7.276;2023-01-19T13:24:04;5.10;99.90
28336;DHT22;15592;53.656;7.276;2023-01-19T13:26:33;4.90;99.90
28336;DHT22;15592;53.656;7.276;2023-01-19T13:31:47;4.70;99.90
28336;DHT22;15592;53.656;7.276;2023-01-19T13:34:27;4.60;99.90
28336;DHT22;15592;53.656;7.276;2023-01-19T13:36:55;4.50;99.90
28336;DHT22;15592;53.656;7.276;2023-01-19T13:39:29;4.50;99.90
28336;DHT22;15592;53.656;7.276;2023-01-19T13:42:00;4.60;99.90
28336;DHT22;15592;53.656;7.276;2023-01-19T13:44:32;4.70;99.90
28336;DHT22;15592;53.656;7.276;2023-01-19T13:47:02;4.80;99.90
28336;DHT22;15592;53.656;7.276;2023-01-19T13:49:34;4.80;99.90
28336;DHT22;15592;53.656;7.276;2023-01-19T13:52:08;4.70;99.90
28336;DHT22;15592;53.656;7.276;2023-01-19T13:54:36;4.70;99.90
28336;DHT22;15592;53.656;7.276;2023-01-19T13:57:01;4.70;99.90
28336;DHT22;15592;53.656;7.276;2023-01-19T13:59:27;4.60;99.90
28336;DHT22;15592;53.656;7.276;2023-01-19T14:01:52;4.60;99.90
28336;DHT22;15592;53.656;7.276;2023-01-19T14:04:34;4.50;99.90
28336;DHT22;15592;53.656;7.276;2023-01-19T14:07:05;4.50;99.90
28336;DHT22;15592;53.656;7.276;2023-01-19T14:09:36;4.50;99.90
28336;DHT22;15592;53.656;7.276;2023-01-19T14:12:14;4.50;99.90
28336;DHT22;15592;53.656;7.276;2023-01-19T14:14:41;4.50;99.90
28336;DHT22;15592;53.656;7.276;2023-01-19T14:17:33;4.50;99.90
28336;DHT22;15592;53.656;7.276;2023-01-19T14:19:59;4.40;99.90
28336;DHT22;15592;53.656;7.276;2023-01-19T14:22:45;4.40;99.90
28336;DHT22;15592;53.656;7.276;2023-01-19T14:25:31;4.50;99.90
28336;DHT22;15592;53.656;7.276;2023-01-19T14:28:29;4.40;99.90
28336;DHT22;15592;53.656;7.276;2023-01-19T14:31:23;4.40;99.90
28336;DHT22;15592;53.656;7.276;2023-01-19T14:33:55;4.40;99.90
28336;DHT22;15592;53.656;7.276;2023-01-19T14:36:35;4.40;99.90
28336;DHT22;15592;53.656;7.276;2023-01-19T14:39:03;4.30;99.90
28336;DHT22;15592;53.656;7.276;2023-01-19T14:41:45;4.20;99.90
28336;DHT22;15592;53.656;7.276;2023-01-19T14:44:34;4.10;99.90
28336;DHT22;15592;53.656;7.276;2023-01-19T14:47:02;4.00;99.90
28336;DHT22;15592;53.656;7.276;2023-01-19T14:49:34;3.90;99.90
28336;DHT22;15592;53.656;7.276;2023-01-19T14:52:41;3.80;99.90
28336;DHT22;15592;53.656;7.276;2023-01-19T14:55:18;3.80;99.90
28336;DHT22;15592;53.656;7.276;2023-01-19T14:57:45;3.80;99.90
28336;DHT22;15592;53.656;7.276;2023-01-19T15:00:12;3.80;99.90
28336;DHT22;15592;53.656;7.276;2023-01-19T15:02:40;3.70;99.90
28336;DHT22;15592;53.656;7.276;2023-01-19T15:05:06;3.70;99.90
28336;DHT22;15592;53.656;7.276;2023-01-19T15:07:33;3.70;99.90
28336;DHT22;15592;53.656;7.276;2023-01-19T15:09:58;3.70;99.90
28336;DHT22;15592;53.656;7.276;2023-01-19T15:12:26;3.70;99.90
28336;DHT22;15592;53.656;7.276;2023-01-19T15:14:52;3.70;99.90
28336;DHT22;15592;53.656;7.276;2023-01-19T15:17:20;3.70;99.90
28336;DHT22;15592;53.656;7.276;2023-01-19T15:19:54;3.60;99.90
28336;DHT22;15592;53.656;7.276;2023-01-19T15:22:20;3.60;99.90
28336;DHT22;15592;53.656;7.276;2023-01-19T15:24:49;3.60;99.90
28336;DHT22;15592;53.656;7.276;2023-01-19T15:27:15;3.60;99.90
28336;DHT22;15592;53.656;7.276;2023-01-19T15:29:41;3.60;99.90
28336;DHT22;15592;53.656;7.276;2023-01-19T15:32:13;3.60;99.90
28336;DHT22;15592;53.656;7.276;2023-01-19T15:34:40;3.60;99.90
28336;DHT22;15592;53.656;7.276;2023-01-19T15:37:05;3.60;99.90
28336;DHT22;15592;53.656;7.276;2023-01-19T15:39:31;3.60;99.90
28336;DHT22;15592;53.656;7.276;2023-01-19T15:41:57;3.60;99.90
28336;DHT22;15592;53.656;7.276;2023-01-19T15:44:23;3.50;99.90
28336;DHT22;15592;53.656;7.276;2023-01-19T15:46:48;3.50;99.90
28336;DHT22;15592;53.656;7.276;2023-01-19T15:49:14;3.40;99.90
28336;DHT22;15592;53.656;7.276;2023-01-19T15:51:39;3.40;99.90
28336;DHT22;15592;53.656;7.276;2023-01-19T15:54:12;3.30;99.90
28336;DHT22;15592;53.656;7.276;2023-01-19T15:56:39;3.30;99.90
28336;DHT22;15592;53.656;7.276;2023-01-19T15:59:04;3.20;99.90
28336;DHT22;15592;53.656;7.276;2023-01-19T16:01:30;3.10;99.90
28336;DHT22;15592;53.656;7.276;2023-01-19T16:04:05;3.10;99.90
28336;DHT22;15592;53.656;7.276;2023-01-19T16:06:32;3.10;99.90
28336;DHT22;15592;53.656;7.276;2023-01-19T16:08:58;3.00;99.90
28336;DHT22;15592;53.656;7.276;2023-01-19T16:11:29;3.00;99.90
28336;DHT22;15592;53.656;7.276;2023-01-19T16:13:55;2.90;99.90
28336;DHT22;15592;53.656;7.276;2023-01-19T16:16:23;2.90;99.90
28336;DHT22;15592;53.656;7.276;2023-01-19T16:18:52;2.80;99.90
28336;DHT22;15592;53.656;7.276;2023-01-19T16:21:18;2.80;99.90
28336;DHT22;15592;53.656;7.276;2023-01-19T16:23:43;2.80;99.90
28336;DHT22;15592;53.656;7.276;2023-01-19T16:26:28;2.80;99.90
28336;DHT22;15592;53.656;7.276;2023-01-19T16:29:04;2.80;99.90
28336;DHT22;15592;53.656;7.276;2023-01-19T16:31:38;2.80;99.90
28336;DHT22;15592;53.656;7.276;2023-01-19T16:34:03;2.80;99.90
28336;DHT22;15592;53.656;7.276;2023-01-19T16:36:31;2.80;99.90
28336;DHT22;15592;53.656;7.276;2023-01-19T16:38:58;2.80;99.90
28336;DHT22;15592;53.656;7.276;2023-01-19T16:41:24;2.80;99.90
28336;DHT22;15592;53.656;7.276;2023-01-19T16:43:54;2.80;99.90
28336;DHT22;15592;53.656;7.276;2023-01-19T16:46:28;2.80;99.90
28336;DHT22;15592;53.656;7.276;2023-01-19T16:48:59;2.80;99.90
28336;DHT22;15592;53.656;7.276;2023-01-19T16:51:25;2.80;99.90
28336;DHT22;15592;53.656;7.276;2023-01-19T16:53:51;2.80;99.90
28336;DHT22;15592;53.656;7.276;2023-01-19T16:56:17;2.80;99.90
28336;DHT22;15592;53.656;7.276;2023-01-19T16:58:43;2.80;99.90
28336;DHT22;15592;53.656;7.276;2023-01-19T17:01:14;2.80;99.90
28336;DHT22;15592;53.656;7.276;2023-01-19T17:03:40;2.80;99.90
28336;DHT22;15592;53.656;7.276;2023-01-19T17:06:07;2.80;99.90
28336;DHT22;15592;53.656;7.276;2023-01-19T17:08:33;2.80;99.90